Lexsy, Georgia
Current Conditions -  °F | °C
As of 8:15 PM on Tuesday 25 Nov 2014 (Local Time) from KSBO Reporting Station
Drizzle Drizzle  
Wind Chill: 54°   Ceiling: 7500
Heat Index: 54°   Visibility: 10mi
Dew Point: 54°   Wind: 3mph
Humidity: 100%   Direction: 330°NNW
Pressure: 30.03"   Gusts: NA
Location:  32.5371°N, 82.3457°W
Report Text: KSBO 260115Z AUTO 33003KT 10SM -DZ OVC075 12/12 A3003 RMK AO2
Loading
Personal Weather Stations






























Interactive Weather Map New forecast layout! Learn more

10-Day Weather Forecast

Advertisements
Track Severe Weather on mobile